Terminal Aerodrome Forecast
Issued by NWS

Current Version | Previous Version | Text Only | Print | Product List | Glossary Off
Versions: 1 2 3 4 5 6 7 8 9 10 11 12 13 14 15 16 17 18 19 20 21

000
FTUS41 KPBZ 201100
TAFHLG
TAF
KHLG 201139Z 2012/2112 VRB03KT 3SM BR OVC035
      TEMPO 2012/2013 2SM BR
     FM201400 18005KT P6SM BKN040
     FM210800 14003KT 3SM BR SCT040=

USA.gov is the U.S. government's official web portal to all federal, state and local government web resources and services.